Time;durP1;ratioP1;P1;durP2;ratioP2;P2;SDS_P1;SDS_P2;PMS_P1;PMS_P2;Temp;Humidity;BMP_temperature;BMP_pressure;BME280_temperature;BME280_humidity;BME280_pressure;Samples;Min_cycle;Max_cycle;Signal;HPM_P1;HPM_P2
2021/10/09 00:00:00;;;;;;;;;;;20.80;99.20;;;;;;5105944;28;19912;-69
2021/10/09 00:02:27;;;;;;;;;;;20.70;99.20;;;;;;5073765;28;19915;-68
2021/10/09 00:04:54;;;;;;;;;;;20.80;98.90;;;;;;5074820;28;19909;-69
2021/10/09 00:07:20;;;;;;;;;;;21.00;98.30;;;;;;5074739;28;19909;-69
2021/10/09 00:09:47;;;;;;;;;;;21.00;98.00;;;;;;5074626;28;19915;-70
2021/10/09 00:12:14;;;;;;;;;;;21.10;96.90;;;;;;5074371;28;19908;-70
2021/10/09 00:14:41;;;;;;;;;;;21.20;99.90;;;;;;5073840;28;19908;-70
2021/10/09 00:17:09;;;;;;;;;;;21.40;99.50;;;;;;5073991;28;19912;-71
2021/10/09 00:19:35;;;;;;;;;;;21.50;99.90;;;;;;5074041;28;19916;-68
2021/10/09 00:22:02;;;;;;;;;;;21.80;98.80;;;;;;5074149;28;19928;-71
2021/10/09 00:24:29;;;;;;;;;;;21.80;98.70;;;;;;5073948;28;20000;-71
2021/10/09 00:26:55;;;;;;;;;;;21.90;98.20;;;;;;5073933;28;20384;-71
2021/10/09 00:29:22;;;;;;;;;;;22.00;97.40;;;;;;5073309;28;19909;-71
2021/10/09 00:31:48;;;;;;;;;;;22.00;98.10;;;;;;5073451;28;19908;-69
2021/10/09 00:34:15;;;;;;;;;;;22.20;98.20;;;;;;5074416;28;19955;-69
2021/10/09 00:36:42;;;;;;;;;;;22.40;97.20;;;;;;5074038;28;19936;-68
2021/10/09 00:39:08;;;;;;;;;;;22.60;98.20;;;;;;5074316;28;20351;-70
2021/10/09 00:41:35;;;;;;;;;;;22.70;98.00;;;;;;5073809;28;19961;-68
2021/10/09 00:44:09;;;;;;;;;;;22.80;97.60;;;;;;5073578;28;20034;-69
2021/10/09 00:46:37;;;;;;;;;;;23.00;97.80;;;;;;5073154;28;20449;-69
2021/10/09 00:49:04;;;;;;;;;;;23.30;96.30;;;;;;5073641;28;19908;-72
2021/10/09 00:51:30;;;;;;;;;;;23.40;97.60;;;;;;5082874;28;20007;-71
2021/10/09 00:53:59;;;;;;;;;;;23.80;98.10;;;;;;5073441;27;19915;-72
2021/10/09 00:56:28;;;;;;;;;;;24.20;97.50;;;;;;5073229;28;19927;-73
2021/10/09 00:58:55;;;;;;;;;;;24.40;96.90;;;;;;5073379;28;19909;-72
2021/10/09 01:01:22;;;;;;;;;;;24.40;97.40;;;;;;5073519;28;20263;-72
2021/10/09 01:03:48;;;;;;;;;;;24.90;95.80;;;;;;5073051;28;19908;-72
2021/10/09 01:06:15;;;;;;;;;;;24.80;95.90;;;;;;5072975;28;20190;-72
2021/10/09 01:08:42;;;;;;;;;;;24.70;96.00;;;;;;5073453;28;19912;-71
2021/10/09 01:11:09;;;;;;;;;;;24.80;95.20;;;;;;5073469;28;19963;-71
2021/10/09 01:13:35;;;;;;;;;;;24.90;94.60;;;;;;5073166;28;19966;-70
2021/10/09 01:16:02;;;;;;;;;;;25.00;94.80;;;;;;5073414;28;20007;-71
2021/10/09 01:18:29;;;;;;;;;;;25.30;94.60;;;;;;5073122;28;20374;-72
2021/10/09 01:21:02;;;;;;;;;;;25.70;93.30;;;;;;5071765;28;19916;-69
2021/10/09 01:23:29;;;;;;;;;;;25.60;93.10;;;;;;5073185;28;19943;-69
2021/10/09 01:25:56;;;;;;;;;;;25.40;93.60;;;;;;5072937;28;19975;-71
2021/10/09 01:28:23;;;;;;;;;;;25.30;94.10;;;;;;5073283;28;20018;-73
2021/10/09 01:30:49;;;;;;;;;;;25.00;93.60;;;;;;5072991;28;20369;-73
2021/10/09 01:33:16;;;;;;;;;;;24.70;93.60;;;;;;5073493;28;20372;-72
2021/10/09 01:35:51;;;;;;;;;;;24.40;93.90;;;;;;5073087;28;19909;-72
2021/10/09 01:38:18;;;;;;;;;;;24.10;93.60;;;;;;5072967;28;19912;-71
2021/10/09 01:40:45;;;;;;;;;;;24.10;94.60;;;;;;5072856;28;19908;-70
2021/10/09 01:43:13;;;;;;;;;;;24.20;94.50;;;;;;5072934;28;19915;-71
2021/10/09 01:45:42;;;;;;;;;;;24.20;94.20;;;;;;5072737;28;19924;-71
2021/10/09 01:48:09;;;;;;;;;;;24.20;94.10;;;;;;5073028;28;19909;-71
2021/10/09 01:50:36;;;;;;;;;;;24.20;95.00;;;;;;5073526;28;19912;-70
2021/10/09 01:53:05;;;;;;;;;;;24.20;94.90;;;;;;5073631;28;19908;-68
2021/10/09 01:55:32;;;;;;;;;;;24.10;95.20;;;;;;5072410;28;19908;-68
2021/10/09 01:57:59;;;;;;;;;;;24.10;95.20;;;;;;5072622;28;20417;-67
2021/10/09 02:00:25;;;;;;;;;;;24.10;95.20;;;;;;5072467;28;19963;-68
2021/10/09 02:02:54;;;;;;;;;;;24.00;95.70;;;;;;5072568;28;19962;-69
2021/10/09 02:05:20;;;;;;;;;;;23.90;94.90;;;;;;5072394;28;19982;-70
2021/10/09 02:07:47;;;;;;;;;;;23.90;94.20;;;;;;5104730;28;20423;-70
2021/10/09 02:10:15;;;;;;;;;;;23.90;94.70;;;;;;5072202;28;20031;-71
2021/10/09 02:12:42;;;;;;;;;;;23.80;94.20;;;;;;5072388;28;19908;-71
2021/10/09 02:15:22;;;;;;;;;;;23.50;95.30;;;;;;5073448;28;19916;-72
2021/10/09 02:26:00;;;;;;;;;;;23.50;94.80;;;;;;5073280;28;19982;-71
2021/10/09 02:28:26;;;;;;;;;;;23.50;93.90;;;;;;5076461;28;19991;-71
2021/10/09 02:30:54;;;;;;;;;;;23.60;94.60;;;;;;5076029;28;19916;-70
2021/10/09 02:33:21;;;;;;;;;;;23.60;94.20;;;;;;5076083;28;19909;-70
2021/10/09 02:35:49;;;;;;;;;;;23.60;92.80;;;;;;5076007;28;20398;-70
2021/10/09 02:38:16;;;;;;;;;;;23.80;92.50;;;;;;5076565;28;19912;-70
2021/10/09 02:40:43;;;;;;;;;;;23.60;93.70;;;;;;5076141;28;19908;-71
2021/10/09 02:43:09;;;;;;;;;;;23.60;93.30;;;;;;5076501;28;20254;-71
2021/10/09 02:45:36;;;;;;;;;;;23.60;91.60;;;;;;5075697;28;19920;-73
2021/10/09 02:48:04;;;;;;;;;;;23.50;92.40;;;;;;5076139;28;19916;-71
2021/10/09 02:50:31;;;;;;;;;;;23.60;91.70;;;;;;5076730;28;20367;-69
2021/10/09 02:52:57;;;;;;;;;;;23.70;90.30;;;;;;5075914;28;19909;-71
2021/10/09 02:55:24;;;;;;;;;;;23.70;92.60;;;;;;5076755;28;19995;-72
2021/10/09 02:57:51;;;;;;;;;;;23.60;92.60;;;;;;5075601;28;20328;-70
2021/10/09 03:00:18;;;;;;;;;;;23.50;92.90;;;;;;5075365;28;19909;-71
2021/10/09 03:02:45;;;;;;;;;;;23.50;92.40;;;;;;5076025;28;20241;-71
2021/10/09 03:05:12;;;;;;;;;;;23.40;93.10;;;;;;5075721;28;19991;-72
2021/10/09 03:07:39;;;;;;;;;;;23.40;92.80;;;;;;5076027;28;19912;-72
2021/10/09 03:10:07;;;;;;;;;;;23.40;90.60;;;;;;5075685;28;19909;-70
2021/10/09 03:12:34;;;;;;;;;;;23.30;92.30;;;;;;5077148;28;19958;-72
2021/10/09 03:15:01;;;;;;;;;;;23.50;91.20;;;;;;5075566;28;19909;-71
2021/10/09 03:17:27;;;;;;;;;;;23.40;92.60;;;;;;5076314;28;19909;-71
2021/10/09 03:19:55;;;;;;;;;;;23.50;91.60;;;;;;5108802;28;20003;-72
2021/10/09 03:22:22;;;;;;;;;;;23.50;90.70;;;;;;5075669;28;20360;-71
2021/10/09 03:24:49;;;;;;;;;;;23.50;91.60;;;;;;5075698;28;20011;-68
2021/10/09 03:27:16;;;;;;;;;;;23.50;91.70;;;;;;5075920;28;19973;-69
2021/10/09 03:29:43;;;;;;;;;;;23.50;90.80;;;;;;5074942;28;19915;-71
2021/10/09 03:32:10;;;;;;;;;;;23.50;90.50;;;;;;5075096;28;20382;-71
2021/10/09 03:34:36;;;;;;;;;;;23.50;90.90;;;;;;5075247;28;19908;-71
2021/10/09 03:37:05;;;;;;;;;;;23.60;90.90;;;;;;5074112;28;19909;-70
2021/10/09 03:39:34;;;;;;;;;;;23.60;91.10;;;;;;5074408;28;19940;-72
2021/10/09 03:42:08;;;;;;;;;;;23.60;91.00;;;;;;5074928;28;19916;-69
2021/10/09 03:44:42;;;;;;;;;;;23.60;89.50;;;;;;5075237;28;19979;-72
2021/10/09 03:47:18;;;;;;;;;;;23.50;90.00;;;;;;5075058;28;19924;-71
2021/10/09 03:49:52;;;;;;;;;;;23.50;90.10;;;;;;5083115;28;20317;-71
2021/10/09 03:55:05;;;;;;;;;;;23.40;90.40;;;;;;5074932;28;19915;-72
2021/10/09 03:57:32;;;;;;;;;;;23.40;87.90;;;;;;5074339;28;19916;-72
2021/10/09 03:59:58;;;;;;;;;;;23.50;89.10;;;;;;5074526;28;19920;-72
2021/10/09 04:02:25;;;;;;;;;;;23.50;90.70;;;;;;5074179;28;20393;-71
2021/10/09 04:04:52;;;;;;;;;;;23.60;89.70;;;;;;5074383;28;20356;-72
2021/10/09 04:07:19;;;;;;;;;;;23.60;90.60;;;;;;5074328;28;19917;-72
2021/10/09 04:09:45;;;;;;;;;;;23.60;90.50;;;;;;5073940;28;19915;-71
2021/10/09 04:12:12;;;;;;;;;;;23.50;91.50;;;;;;5074463;28;19916;-72
2021/10/09 04:14:39;;;;;;;;;;;23.40;92.20;;;;;;5074290;28;19917;-71
2021/10/09 04:17:06;;;;;;;;;;;23.40;92.80;;;;;;5074170;28;19952;-69
2021/10/09 04:19:33;;;;;;;;;;;23.30;93.00;;;;;;5073824;28;19956;-73
2021/10/09 04:22:00;;;;;;;;;;;23.10;93.90;;;;;;5074002;28;19915;-71
2021/10/09 04:24:26;;;;;;;;;;;23.10;93.80;;;;;;5073799;28;19951;-72
2021/10/09 04:26:53;;;;;;;;;;;23.00;93.80;;;;;;5073748;28;19970;-72
2021/10/09 04:29:20;;;;;;;;;;;23.00;93.90;;;;;;5073958;28;19916;-71
2021/10/09 04:31:46;;;;;;;;;;;23.10;93.60;;;;;;5074549;28;19993;-72
2021/10/09 04:34:13;;;;;;;;;;;23.20;93.20;;;;;;5074233;28;19962;-72
2021/10/09 04:36:40;;;;;;;;;;;23.20;93.20;;;;;;5074016;28;19916;-71
2021/10/09 04:39:06;;;;;;;;;;;23.30;91.50;;;;;;5074042;28;19913;-73
2021/10/09 04:41:33;;;;;;;;;;;23.30;92.30;;;;;;5073758;28;19913;-72
2021/10/09 04:43:59;;;;;;;;;;;23.30;92.10;;;;;;5074013;28;20394;-72
2021/10/09 04:46:26;;;;;;;;;;;23.30;92.20;;;;;;5074309;28;20003;-72
2021/10/09 04:48:53;;;;;;;;;;;23.30;92.40;;;;;;5073701;28;19913;-72
2021/10/09 04:51:19;;;;;;;;;;;23.30;92.90;;;;;;5074653;28;20365;-71
2021/10/09 04:53:46;;;;;;;;;;;23.40;92.50;;;;;;5073687;28;19912;-72
2021/10/09 04:56:13;;;;;;;;;;;23.40;93.00;;;;;;5073948;28;20275;-72
2021/10/09 04:58:40;;;;;;;;;;;23.40;93.20;;;;;;5074061;28;19954;-72
2021/10/09 05:01:06;;;;;;;;;;;23.40;91.80;;;;;;5074288;28;19912;-72
2021/10/09 05:03:33;;;;;;;;;;;23.40;92.00;;;;;;5074356;28;19914;-72
2021/10/09 05:06:00;;;;;;;;;;;23.40;91.40;;;;;;5073959;28;20003;-71
2021/10/09 05:08:26;;;;;;;;;;;23.30;91.10;;;;;;5074072;28;19909;-71
2021/10/09 05:10:54;;;;;;;;;;;23.30;91.60;;;;;;5073611;28;20003;-72
2021/10/09 05:13:21;;;;;;;;;;;23.20;91.90;;;;;;5073409;28;19909;-71
2021/10/09 05:15:48;;;;;;;;;;;23.20;92.30;;;;;;5073188;28;19999;-72
2021/10/09 05:18:14;;;;;;;;;;;23.20;93.30;;;;;;5073933;28;19909;-71
2021/10/09 05:20:41;;;;;;;;;;;23.10;94.00;;;;;;5074818;28;19956;-71
2021/10/09 05:23:08;;;;;;;;;;;23.10;94.30;;;;;;5080936;28;19920;-71
2021/10/09 05:25:36;;;;;;;;;;;23.10;94.60;;;;;;5081945;28;19928;-72
2021/10/09 05:28:14;;;;;;;;;;;23.10;95.10;;;;;;5074969;28;20225;-70
2021/10/09 05:30:50;;;;;;;;;;;23.00;95.30;;;;;;5083979;28;19936;-69
2021/10/09 05:35:43;;;;;;;;;;;22.90;96.50;;;;;;5084804;28;19909;-71
2021/10/09 05:38:10;;;;;;;;;;;22.80;96.50;;;;;;5084696;28;19908;-69
2021/10/09 05:40:36;;;;;;;;;;;22.70;96.80;;;;;;5082987;28;19986;-71
2021/10/09 05:43:03;;;;;;;;;;;22.70;97.40;;;;;;5083782;28;19947;-71
2021/10/09 05:45:30;;;;;;;;;;;22.70;97.70;;;;;;5081211;28;19913;-71
2021/10/09 05:47:57;;;;;;;;;;;22.70;98.00;;;;;;5076740;28;19919;-69
2021/10/09 05:50:41;;;;;;;;;;;22.60;97.30;;;;;;5073588;28;19962;-70
2021/10/09 05:53:15;;;;;;;;;;;22.50;97.50;;;;;;5073728;28;19994;-68
2021/10/09 06:47:19;;;;;;;;;;;22.20;97.70;;;;;;5071944;28;19924;-69
2021/10/09 06:50:12;;;;;;;;;;;22.20;98.10;;;;;;5071868;28;19915;-69
2021/10/09 07:00:54;;;;;;;;;;;22.10;97.80;;;;;;5071958;28;19957;-69
2021/10/09 07:03:21;;;;;;;;;;;22.10;97.80;;;;;;5072019;28;20409;-69
2021/10/09 07:05:48;;;;;;;;;;;22.10;97.90;;;;;;5071541;28;19913;-69
2021/10/09 07:08:15;;;;;;;;;;;22.10;97.90;;;;;;5071994;28;19908;-68
2021/10/09 07:10:46;;;;;;;;;;;22.00;98.10;;;;;;5071789;28;19959;-69
2021/10/09 07:13:12;;;;;;;;;;;22.00;98.50;;;;;;5075653;28;19908;-70
2021/10/09 07:15:39;;;;;;;;;;;21.90;98.00;;;;;;5076117;28;19909;-70
2021/10/09 07:18:11;;;;;;;;;;;21.90;98.20;;;;;;5076035;28;19995;-69
2021/10/09 07:20:39;;;;;;;;;;;21.80;97.00;;;;;;5076230;28;19938;-70
2021/10/09 07:23:07;;;;;;;;;;;21.90;96.80;;;;;;5076160;28;19947;-69
2021/10/09 07:25:37;;;;;;;;;;;21.80;96.60;;;;;;5075488;28;19958;-68
2021/10/09 07:28:04;;;;;;;;;;;21.80;96.70;;;;;;5076286;28;19912;-67
2021/10/09 07:30:31;;;;;;;;;;;21.80;96.20;;;;;;5075899;28;19916;-69
2021/10/09 07:32:58;;;;;;;;;;;21.80;96.20;;;;;;5076079;28;20359;-70
2021/10/09 07:35:25;;;;;;;;;;;21.80;95.40;;;;;;5075571;28;19908;-70
2021/10/09 07:37:52;;;;;;;;;;;21.80;95.50;;;;;;5075189;28;20003;-70
2021/10/09 07:40:19;;;;;;;;;;;21.80;95.30;;;;;;5074898;28;19909;-70
2021/10/09 07:42:46;;;;;;;;;;;21.80;95.30;;;;;;5075018;28;19912;-70
2021/10/09 07:45:13;;;;;;;;;;;21.70;95.50;;;;;;5107184;28;19909;-70
2021/10/09 07:47:40;;;;;;;;;;;21.60;96.00;;;;;;5074549;28;19912;-68
2021/10/09 07:50:07;;;;;;;;;;;21.60;96.40;;;;;;5075334;28;19909;-68
2021/10/09 07:52:35;;;;;;;;;;;21.60;96.60;;;;;;5074949;28;19997;-69
2021/10/09 07:55:02;;;;;;;;;;;21.50;96.90;;;;;;5074503;28;19908;-70
2021/10/09 07:57:30;;;;;;;;;;;21.50;97.40;;;;;;5074864;28;19908;-68
2021/10/09 07:59:56;;;;;;;;;;;21.40;97.40;;;;;;5074641;28;20321;-71
2021/10/09 08:02:23;;;;;;;;;;;21.40;97.60;;;;;;5074798;28;19916;-68
2021/10/09 08:04:51;;;;;;;;;;;21.40;97.60;;;;;;5074408;28;19908;-70
2021/10/09 08:07:18;;;;;;;;;;;21.40;97.90;;;;;;5074389;28;19921;-70
2021/10/09 08:09:44;;;;;;;;;;;21.40;98.10;;;;;;5073963;28;19915;-69
2021/10/09 08:12:11;;;;;;;;;;;21.30;98.20;;;;;;5074381;28;19951;-70
2021/10/09 08:14:38;;;;;;;;;;;21.30;98.10;;;;;;5074448;28;19962;-70
2021/10/09 08:17:04;;;;;;;;;;;21.30;98.20;;;;;;5074215;28;19913;-72
2021/10/09 08:19:31;;;;;;;;;;;21.30;98.30;;;;;;5074115;28;20371;-71
2021/10/09 08:22:03;;;;;;;;;;;21.30;98.50;;;;;;5074510;28;19951;-71
2021/10/09 08:24:53;;;;;;;;;;;21.30;98.40;;;;;;5073765;28;20291;-69
2021/10/09 08:35:37;;;;;;;;;;;21.30;97.50;;;;;;5075533;28;19954;-72
2021/10/09 08:40:48;;;;;;;;;;;21.30;97.40;;;;;;5074065;28;19915;-69
2021/10/09 08:43:15;;;;;;;;;;;21.30;97.40;;;;;;5073825;28;19916;-69
2021/10/09 08:45:42;;;;;;;;;;;21.40;97.20;;;;;;5073528;28;19913;-69
2021/10/09 08:48:09;;;;;;;;;;;21.30;97.20;;;;;;5073805;28;19913;-69
2021/10/09 08:50:36;;;;;;;;;;;21.30;96.60;;;;;;5073846;28;19916;-71
2021/10/09 08:53:10;;;;;;;;;;;21.30;96.40;;;;;;5072466;28;20014;-69
2021/10/09 08:55:38;;;;;;;;;;;21.30;96.40;;;;;;5093354;28;19912;-72
2021/10/09 08:58:10;;;;;;;;;;;21.30;96.30;;;;;;5094031;28;19915;-71
2021/10/09 09:00:39;;;;;;;;;;;21.30;96.30;;;;;;5124962;27;20393;-70
2021/10/09 09:03:11;;;;;;;;;;;21.30;96.40;;;;;;5093789;28;19970;-70
2021/10/09 09:05:53;;;;;;;;;;;21.30;96.40;;;;;;5093187;28;19966;-70
2021/10/09 09:36:06;;;;;;;;;;;21.20;94.90;;;;;;5093147;28;20003;-69
2021/10/09 09:41:48;;;;;;;;;;;21.20;94.60;;;;;;5081496;28;19908;-69
2021/10/09 09:44:16;;;;;;;;;;;21.20;95.00;;;;;;5093372;28;20270;-71
2021/10/09 09:46:43;;;;;;;;;;;21.20;95.30;;;;;;5093490;28;19916;-70
2021/10/09 09:49:09;;;;;;;;;;;21.20;94.10;;;;;;5093213;28;20358;-72
2021/10/09 09:51:38;;;;;;;;;;;21.20;94.60;;;;;;5092804;28;20012;-71
2021/10/09 09:54:05;;;;;;;;;;;21.10;94.60;;;;;;5092752;28;19908;-69
2021/10/09 09:56:31;;;;;;;;;;;21.10;94.80;;;;;;5093046;28;19914;-69
2021/10/09 09:59:02;;;;;;;;;;;21.10;94.70;;;;;;5093415;28;19912;-72
2021/10/09 10:01:35;;;;;;;;;;;21.10;95.20;;;;;;5093260;28;19962;-70
2021/10/09 10:04:02;;;;;;;;;;;21.10;95.60;;;;;;5093072;28;19912;-70
2021/10/09 10:06:30;;;;;;;;;;;21.10;96.10;;;;;;5092125;28;19973;-71
2021/10/09 10:08:57;;;;;;;;;;;21.00;96.60;;;;;;5092365;28;19916;-70
2021/10/09 10:11:24;;;;;;;;;;;21.00;97.20;;;;;;5092313;28;19951;-70
2021/10/09 10:13:51;;;;;;;;;;;20.90;97.70;;;;;;5092129;28;20414;-70
2021/10/09 10:16:18;;;;;;;;;;;20.90;98.10;;;;;;5092749;28;19909;-70
2021/10/09 10:18:51;;;;;;;;;;;20.90;98.60;;;;;;5092421;28;19995;-70
2021/10/09 10:21:33;;;;;;;;;;;20.90;99.10;;;;;;5092581;28;19912;-71
2021/10/09 10:23:59;;;;;;;;;;;20.80;99.30;;;;;;5092154;28;19928;-69
2021/10/09 10:26:28;;;;;;;;;;;20.80;99.70;;;;;;5092148;28;19927;-70
2021/10/09 10:28:55;;;;;;;;;;;20.70;99.90;;;;;;5092320;28;19909;-71
2021/10/09 10:31:22;;;;;;;;;;;20.70;99.90;;;;;;5092896;28;20244;-71
2021/10/09 10:33:56;;;;;;;;;;;20.70;99.90;;;;;;5092220;28;19909;-68
2021/10/09 10:36:39;;;;;;;;;;;20.60;99.90;;;;;;5091707;28;20255;-71
2021/10/09 10:39:07;;;;;;;;;;;20.60;99.90;;;;;;5092198;28;19912;-68
2021/10/09 10:41:41;;;;;;;;;;;20.50;99.90;;;;;;5092058;28;19915;-70
2021/10/09 10:44:09;;;;;;;;;;;20.50;99.90;;;;;;5092379;28;19912;-71
2021/10/09 10:46:43;;;;;;;;;;;20.50;99.90;;;;;;5092576;28;19974;-70
2021/10/09 10:51:50;;;;;;;;;;;20.50;99.90;;;;;;5096034;28;19908;-70
2021/10/09 10:56:59;;;;;;;;;;;20.40;99.90;;;;;;5095447;28;20287;-69
2021/10/09 11:00:00;;;;;;;;;;;20.40;99.90;;;;;;5097185;28;19909;-70
2021/10/09 11:02:39;;;;;;;;;;;20.50;99.90;;;;;;5093877;28;19908;-71
2021/10/09 11:05:05;;;;;;;;;;;20.40;99.90;;;;;;5094125;28;19965;-71
2021/10/09 11:07:36;;;;;;;;;;;20.50;99.90;;;;;;5093097;28;19927;-70
2021/10/09 11:10:05;;;;;;;;;;;20.40;99.90;;;;;;5093899;28;19919;-69
2021/10/09 11:12:32;;;;;;;;;;;20.40;99.90;;;;;;5093593;28;20003;-69
2021/10/09 11:15:10;;;;;;;;;;;20.50;99.90;;;;;;5093779;28;19908;-70
2021/10/09 11:17:38;;;;;;;;;;;20.50;99.90;;;;;;5093477;28;20483;-68
2021/10/09 11:20:20;;;;;;;;;;;20.40;99.90;;;;;;5093009;28;20027;-69
2021/10/09 11:22:49;;;;;;;;;;;20.50;99.90;;;;;;5093120;28;19924;-69
2021/10/09 11:25:24;;;;;;;;;;;20.40;99.90;;;;;;5093628;28;19915;-70
2021/10/09 11:27:51;;;;;;;;;;;20.50;99.90;;;;;;5093080;28;19981;-70
2021/10/09 11:30:18;;;;;;;;;;;20.40;99.90;;;;;;5093376;28;19912;-70
2021/10/09 11:32:45;;;;;;;;;;;20.40;99.90;;;;;;5092844;28;19912;-70
2021/10/09 11:35:13;;;;;;;;;;;20.40;99.90;;;;;;5093255;28;20390;-69
2021/10/09 11:37:47;;;;;;;;;;;20.40;99.90;;;;;;5093017;28;19912;-69
2021/10/09 11:40:14;;;;;;;;;;;20.40;99.90;;;;;;5093600;28;19909;-70
2021/10/09 11:42:51;;;;;;;;;;;20.40;99.90;;;;;;5092972;28;20370;-68
2021/10/09 11:45:33;;;;;;;;;;;20.40;99.90;;;;;;5092740;28;20278;-70
2021/10/09 11:53:49;;;;;;;;;;;20.40;99.90;;;;;;5092037;28;19977;-68
2021/10/09 11:56:16;;;;;;;;;;;20.30;99.90;;;;;;5092889;28;19912;-70
2021/10/09 11:58:54;;;;;;;;;;;20.30;99.90;;;;;;5091338;28;20347;-67
2021/10/09 12:01:36;;;;;;;;;;;20.30;99.90;;;;;;5092772;28;19915;-69
2021/10/09 12:04:22;;;;;;;;;;;20.30;99.90;;;;;;5092942;28;19914;-67
2021/10/09 12:06:53;;;;;;;;;;;20.30;99.90;;;;;;5091897;28;20005;-70
2021/10/09 12:09:46;;;;;;;;;;;20.20;99.90;;;;;;5092324;28;19915;-71
2021/10/09 12:12:22;;;;;;;;;;;20.20;99.90;;;;;;5092548;28;19912;-71
2021/10/09 12:14:50;;;;;;;;;;;20.20;99.90;;;;;;5092316;28;19919;-71
2021/10/09 12:17:18;;;;;;;;;;;20.20;99.90;;;;;;5092323;28;19915;-71
2021/10/09 12:19:46;;;;;;;;;;;20.20;99.90;;;;;;5091554;28;20247;-71
2021/10/09 12:22:14;;;;;;;;;;;20.10;99.90;;;;;;5091972;28;20709;-70
2021/10/09 12:24:49;;;;;;;;;;;20.10;99.90;;;;;;5092292;28;19919;-70
2021/10/09 12:27:19;;;;;;;;;;;20.00;99.90;;;;;;5091988;28;20019;-71
2021/10/09 12:30:16;;;;;;;;;;;20.10;99.90;;;;;;5091937;28;19993;-70
2021/10/09 12:32:44;;;;;;;;;;;20.00;99.90;;;;;;5087131;28;20634;-69
2021/10/09 12:35:17;;;;;;;;;;;20.00;99.90;;;;;;5092070;28;19912;-70
2021/10/09 12:37:56;;;;;;;;;;;20.00;99.90;;;;;;5091616;28;20057;-70
2021/10/09 12:40:24;;;;;;;;;;;20.00;99.90;;;;;;5091884;28;20279;-69
2021/10/09 12:42:52;;;;;;;;;;;19.90;99.90;;;;;;5091702;28;20307;-71
2021/10/09 12:45:19;;;;;;;;;;;19.90;99.90;;;;;;5091487;28;20420;-68
2021/10/09 12:47:46;;;;;;;;;;;19.90;99.90;;;;;;5091463;28;19965;-68
2021/10/09 12:50:12;;;;;;;;;;;20.00;99.90;;;;;;5091878;28;19908;-68
2021/10/09 12:52:39;;;;;;;;;;;20.00;99.90;;;;;;5091383;28;19915;-68
2021/10/09 12:55:06;;;;;;;;;;;20.00;99.90;;;;;;5091431;28;19919;-70
2021/10/09 12:57:34;;;;;;;;;;;20.00;99.90;;;;;;5090901;28;19916;-71
2021/10/09 13:00:01;;;;;;;;;;;20.00;99.90;;;;;;5091383;28;19908;-69
2021/10/09 13:02:27;;;;;;;;;;;19.90;99.90;;;;;;5091410;28;19908;-69
2021/10/09 13:04:55;;;;;;;;;;;19.90;99.90;;;;;;5086997;28;19916;-71
2021/10/09 13:07:22;;;;;;;;;;;19.80;99.90;;;;;;5070799;28;20062;-70
2021/10/09 13:09:50;;;;;;;;;;;19.80;99.90;;;;;;5070478;28;19999;-70
2021/10/09 13:12:17;;;;;;;;;;;19.80;99.90;;;;;;5071111;28;19913;-71
2021/10/09 13:14:43;;;;;;;;;;;19.80;99.90;;;;;;5071031;28;19966;-69
2021/10/09 13:17:10;;;;;;;;;;;19.80;99.90;;;;;;5103042;28;19908;-69
2021/10/09 13:19:37;;;;;;;;;;;19.80;99.90;;;;;;5070440;28;19909;-69
2021/10/09 13:22:03;;;;;;;;;;;19.90;99.90;;;;;;5070793;28;20414;-69
2021/10/09 13:24:30;;;;;;;;;;;20.00;99.90;;;;;;5070918;28;19968;-68
2021/10/09 13:26:56;;;;;;;;;;;20.00;99.90;;;;;;5070707;28;19950;-70
2021/10/09 13:29:23;;;;;;;;;;;20.00;99.90;;;;;;5069519;28;19920;-68
2021/10/09 13:31:50;;;;;;;;;;;19.90;99.90;;;;;;5070371;28;19912;-71
2021/10/09 13:34:16;;;;;;;;;;;19.90;99.90;;;;;;5070917;28;19919;-69
2021/10/09 13:36:44;;;;;;;;;;;19.80;99.90;;;;;;5070651;28;19955;-69
2021/10/09 13:39:11;;;;;;;;;;;19.80;99.90;;;;;;5070476;28;19913;-71
2021/10/09 13:41:38;;;;;;;;;;;19.70;99.90;;;;;;5070222;28;19924;-70
2021/10/09 13:44:05;;;;;;;;;;;19.70;99.90;;;;;;5070202;28;19987;-69
2021/10/09 13:46:32;;;;;;;;;;;19.60;99.90;;;;;;5070370;28;19922;-70
2021/10/09 13:48:59;;;;;;;;;;;19.60;99.90;;;;;;5102825;28;20366;-70
2021/10/09 13:51:26;;;;;;;;;;;19.60;99.90;;;;;;5103046;28;20043;-70
2021/10/09 13:53:53;;;;;;;;;;;19.50;99.90;;;;;;5070350;28;19950;-69
2021/10/09 13:56:19;;;;;;;;;;;19.50;99.90;;;;;;5070428;28;19908;-69
2021/10/09 13:58:46;;;;;;;;;;;19.50;99.90;;;;;;5070226;28;19999;-68
2021/10/09 14:01:14;;;;;;;;;;;19.50;99.90;;;;;;5070154;28;19908;-68
2021/10/09 14:03:45;;;;;;;;;;;19.50;99.90;;;;;;5070036;28;19921;-68
2021/10/09 14:06:12;;;;;;;;;;;19.50;99.90;;;;;;5070104;28;19920;-69
2021/10/09 14:08:38;;;;;;;;;;;19.50;99.90;;;;;;5070240;28;19923;-68
2021/10/09 14:11:05;;;;;;;;;;;19.50;99.90;;;;;;5070070;28;19960;-71
2021/10/09 14:13:32;;;;;;;;;;;19.50;99.90;;;;;;5069915;28;20431;-70
2021/10/09 14:15:59;;;;;;;;;;;19.50;99.90;;;;;;5070472;28;19909;-70
2021/10/09 14:18:26;;;;;;;;;;;19.50;99.90;;;;;;5070165;28;19983;-70
2021/10/09 14:20:53;;;;;;;;;;;19.50;99.90;;;;;;5070168;28;19920;-70
2021/10/09 14:23:20;;;;;;;;;;;19.50;99.90;;;;;;5073393;28;19979;-71
2021/10/09 14:25:48;;;;;;;;;;;19.50;99.90;;;;;;5074031;28;20264;-71
2021/10/09 14:28:15;;;;;;;;;;;19.50;99.90;;;;;;5074264;28;19990;-70
2021/10/09 14:30:42;;;;;;;;;;;19.60;99.90;;;;;;5074173;28;19919;-72
2021/10/09 14:33:09;;;;;;;;;;;19.50;99.90;;;;;;5074143;28;19912;-72
2021/10/09 14:35:36;;;;;;;;;;;19.50;99.90;;;;;;5106149;28;20030;-70
2021/10/09 14:38:05;;;;;;;;;;;19.60;99.90;;;;;;5073727;28;19916;-71
2021/10/09 14:40:32;;;;;;;;;;;19.60;99.90;;;;;;5074076;28;19916;-70
2021/10/09 14:42:59;;;;;;;;;;;19.60;99.90;;;;;;5073963;28;19909;-70
2021/10/09 14:45:27;;;;;;;;;;;19.70;99.90;;;;;;5074281;28;19908;-69
2021/10/09 14:48:06;;;;;;;;;;;19.80;99.90;;;;;;5073696;28;19956;-70
2021/10/09 14:51:06;;;;;;;;;;;19.70;99.80;;;;;;5073611;28;19913;-70
2021/10/09 14:53:30;;;;;;;;;;;19.80;99.70;;;;;;5073277;28;19908;-71
2021/10/09 14:56:24;;;;;;;;;;;19.70;99.70;;;;;;5073537;28;20765;-68
2021/10/09 15:18:12;;;;;;;;;;;19.60;99.90;;;;;;5073202;28;19915;-71
2021/10/09 15:20:38;;;;;;;;;;;19.60;99.90;;;;;;5073319;28;20418;-69
2021/10/09 15:23:07;;;;;;;;;;;19.60;99.90;;;;;;5073033;28;19946;-70
2021/10/09 15:25:34;;;;;;;;;;;19.50;99.90;;;;;;5072855;28;20542;-70
2021/10/09 15:28:01;;;;;;;;;;;19.50;99.90;;;;;;5073074;28;19916;-70
2021/10/09 15:30:27;;;;;;;;;;;19.60;99.90;;;;;;5072747;28;19912;-70
2021/10/09 15:32:54;;;;;;;;;;;19.60;99.90;;;;;;5072702;28;19941;-71
2021/10/09 15:35:22;;;;;;;;;;;19.60;99.90;;;;;;5072915;28;20371;-70
2021/10/09 15:37:48;;;;;;;;;;;19.50;99.90;;;;;;5072559;28;19938;-70
2021/10/09 15:40:19;;;;;;;;;;;19.50;99.90;;;;;;5073233;28;19908;-71
2021/10/09 15:42:47;;;;;;;;;;;19.50;99.90;;;;;;5072552;28;20007;-68
2021/10/09 15:45:14;;;;;;;;;;;19.50;99.90;;;;;;5071684;28;19909;-70
2021/10/09 15:47:41;;;;;;;;;;;19.40;99.90;;;;;;5072353;28;19924;-69
2021/10/09 15:50:07;;;;;;;;;;;19.30;99.90;;;;;;5072821;28;20355;-69
2021/10/09 15:52:34;;;;;;;;;;;19.30;99.90;;;;;;5072557;28;19913;-70
2021/10/09 15:55:01;;;;;;;;;;;19.30;99.90;;;;;;5072273;28;19912;-71
2021/10/09 15:57:29;;;;;;;;;;;19.30;99.90;;;;;;5072766;28;19915;-69
2021/10/09 15:59:55;;;;;;;;;;;19.30;99.90;;;;;;5105205;28;19919;-70
2021/10/09 16:02:22;;;;;;;;;;;19.30;99.90;;;;;;5072403;28;19912;-70
2021/10/09 16:04:49;;;;;;;;;;;19.20;99.90;;;;;;5072358;28;20523;-68
2021/10/09 16:07:15;;;;;;;;;;;19.10;99.90;;;;;;5072313;28;20003;-69
2021/10/09 16:09:42;;;;;;;;;;;19.10;99.90;;;;;;5071851;28;19909;-70
2021/10/09 16:12:10;;;;;;;;;;;19.00;99.90;;;;;;5072384;28;19967;-69
2021/10/09 16:14:37;;;;;;;;;;;18.90;99.90;;;;;;5072342;28;20329;-70
2021/10/09 16:17:04;;;;;;;;;;;18.80;99.90;;;;;;5072298;28;19908;-70
2021/10/09 16:19:30;;;;;;;;;;;18.60;99.90;;;;;;5072413;28;19909;-70
2021/10/09 16:21:57;;;;;;;;;;;18.50;99.90;;;;;;5071927;28;19909;-71
2021/10/09 16:24:23;;;;;;;;;;;18.50;99.90;;;;;;5072446;28;19908;-71
2021/10/09 16:26:50;;;;;;;;;;;18.50;99.90;;;;;;5072206;28;19916;-70
2021/10/09 16:29:17;;;;;;;;;;;18.50;99.90;;;;;;5072646;28;19942;-69
2021/10/09 16:31:43;;;;;;;;;;;18.60;99.90;;;;;;5071601;28;19951;-71
2021/10/09 16:34:10;;;;;;;;;;;18.70;99.90;;;;;;5071520;28;19913;-70
2021/10/09 16:36:39;;;;;;;;;;;18.70;99.90;;;;;;5071745;28;19920;-69
2021/10/09 16:39:06;;;;;;;;;;;18.70;99.90;;;;;;5071804;28;19908;-71
2021/10/09 16:41:33;;;;;;;;;;;18.70;99.90;;;;;;5071533;28;19983;-69
2021/10/09 16:44:00;;;;;;;;;;;18.70;99.90;;;;;;5071383;28;20255;-70
2021/10/09 16:46:26;;;;;;;;;;;18.70;99.90;;;;;;5071392;28;19920;-70
2021/10/09 16:48:53;;;;;;;;;;;18.60;99.90;;;;;;5071448;28;19912;-70